createdAt,value
2017-12-10T00:00:45.769Z,95122.33
2017-12-10T00:03:17.432Z,95113.83
2017-12-10T00:05:46.469Z,95107.41
2017-12-10T00:08:16.322Z,95104.21
2017-12-10T00:10:45.385Z,95099.64
2017-12-10T00:13:18.005Z,95107.40
2017-12-10T00:15:47.142Z,95113.04
2017-12-10T00:18:19.637Z,95111.20
2017-12-10T00:20:48.680Z,95116.50
2017-12-10T00:23:18.714Z,95113.28
2017-12-10T00:25:47.822Z,95109.39
2017-12-10T00:28:18.962Z,95106.33
2017-12-10T00:30:48.997Z,95107.45
2017-12-10T00:33:29.021Z,95100.56
2017-12-10T00:35:58.222Z,95087.41
2017-12-10T00:43:40.991Z,95080.20
2017-12-10T00:46:10.048Z,95081.61
2017-12-10T00:48:40.132Z,95077.05
2017-12-10T00:51:09.184Z,95074.85
2017-12-10T00:53:39.189Z,95067.27
2017-12-10T00:56:10.186Z,95056.72
2017-12-10T00:58:41.126Z,95055.66
2017-12-10T01:01:10.176Z,95051.54
2017-12-10T01:03:41.138Z,95043.44
2017-12-10T01:06:17.478Z,95044.30
2017-12-10T01:08:46.518Z,95036.53
2017-12-10T01:11:24.817Z,95036.36
2017-12-10T01:13:53.873Z,95032.05
2017-12-10T01:16:26.758Z,95035.97
2017-12-10T01:18:55.862Z,95034.80
2017-12-10T01:21:32.266Z,95029.54
2017-12-10T01:26:44.723Z,95030.03
2017-12-10T01:29:13.760Z,95027.85
2017-12-10T01:31:42.797Z,95031.14
2017-12-10T01:36:49.423Z,95018.66
2017-12-10T01:39:18.474Z,95010.77
2017-12-10T01:41:47.521Z,95008.83
2017-12-10T01:46:52.174Z,95008.38
2017-12-10T01:49:24.679Z,95005.58
2017-12-10T01:51:53.723Z,94997.07
2017-12-10T01:57:12.967Z,94982.05
2017-12-10T01:59:42.017Z,94973.98
2017-12-10T02:02:11.066Z,94968.53
2017-12-10T02:04:43.678Z,94957.17
2017-12-10T02:07:18.670Z,94947.62
2017-12-10T02:09:47.776Z,94943.47
2017-12-10T02:12:18.750Z,94932.66
2017-12-10T02:14:47.802Z,94929.98
2017-12-10T02:19:53.038Z,94918.31
2017-12-10T02:22:35.743Z,94916.46
2017-12-10T02:25:05.697Z,94909.02
2017-12-10T02:27:34.774Z,94902.91
2017-12-10T02:30:03.800Z,94890.73
2017-12-10T02:32:41.935Z,94892.95
2017-12-10T02:35:18.694Z,94884.92
2017-12-10T02:37:47.768Z,94880.33
2017-12-10T02:40:16.825Z,94876.19
2017-12-10T02:42:45.875Z,94876.73
2017-12-10T02:45:22.492Z,94875.66
2017-12-10T02:47:51.546Z,94869.66
2017-12-10T02:50:20.594Z,94868.53
2017-12-10T02:52:49.655Z,94863.89
2017-12-10T02:58:30.689Z,94845.70
2017-12-10T03:00:59.721Z,94842.88
2017-12-10T03:03:37.813Z,94837.72
2017-12-10T03:08:44.566Z,94824.27
2017-12-10T03:11:18.139Z,94815.63
2017-12-10T03:13:51.002Z,94812.88
2017-12-10T03:16:20.068Z,94808.42
2017-12-10T03:18:49.101Z,94800.66
2017-12-10T03:21:18.149Z,94792.83
2017-12-10T03:23:47.206Z,94784.80
2017-12-10T03:26:18.246Z,94783.35
2017-12-10T03:28:47.283Z,94776.18
2017-12-10T03:31:16.362Z,94768.42
2017-12-10T03:33:45.429Z,94772.17
2017-12-10T03:36:25.402Z,94769.39
2017-12-10T03:38:54.471Z,94763.84
2017-12-10T03:41:28.955Z,94758.95
2017-12-10T03:43:58.021Z,94750.35
2017-12-10T03:46:29.032Z,94744.46
2017-12-10T03:48:58.091Z,94743.27
2017-12-10T03:51:29.107Z,94745.49
2017-12-10T03:54:02.653Z,94746.45
2017-12-10T03:56:31.694Z,94738.15
2017-12-10T03:59:00.785Z,94728.58
2017-12-10T04:01:30.809Z,94734.59
2017-12-10T04:04:03.692Z,94728.87
2017-12-10T04:06:32.826Z,94721.60
2017-12-10T04:09:09.079Z,94714.27
2017-12-10T04:11:41.590Z,94718.27
2017-12-10T04:14:12.620Z,94717.41
2017-12-10T04:16:41.671Z,94708.54
2017-12-10T04:19:10.737Z,94708.05
2017-12-10T04:21:40.692Z,94704.27
2017-12-10T04:24:09.734Z,94709.21
2017-12-10T04:26:40.697Z,94709.13
2017-12-10T04:29:09.753Z,94701.14
2017-12-10T04:31:39.694Z,94697.88
2017-12-10T04:34:08.749Z,94700.97
2017-12-10T04:36:44.273Z,94695.42
2017-12-10T04:39:14.218Z,94687.38
2017-12-10T04:41:48.536Z,94674.29
2017-12-10T04:44:17.603Z,94669.46
2017-12-10T04:46:48.793Z,94665.75
2017-12-10T04:49:17.839Z,94650.58
2017-12-10T04:51:47.871Z,94643.87
2017-12-10T04:54:16.897Z,94634.17
2017-12-10T04:56:46.002Z,94630.94
2017-12-10T04:59:15.054Z,94622.80
2017-12-10T05:01:47.908Z,94610.33
2017-12-10T05:04:16.955Z,94608.88
2017-12-10T05:06:50.618Z,94609.41
2017-12-10T05:09:19.671Z,94604.87
2017-12-10T05:12:02.150Z,94593.52
2017-12-10T05:14:31.210Z,94594.08
2017-12-10T05:17:04.081Z,94596.33
2017-12-10T05:19:37.623Z,94582.94
2017-12-10T05:22:06.672Z,94584.63
2017-12-10T05:24:44.821Z,94578.26
2017-12-10T05:27:13.901Z,94563.08
2017-12-10T05:29:42.898Z,94566.89
2017-12-10T05:32:11.938Z,94564.05
2017-12-10T05:34:44.555Z,94560.66
2017-12-10T05:37:13.631Z,94546.05
2017-12-10T05:39:42.678Z,94546.44
2017-12-10T05:42:11.715Z,94537.44
2017-12-10T05:44:40.758Z,94536.64
2017-12-10T05:47:09.819Z,94540.77
2017-12-10T05:49:38.905Z,94537.97
2017-12-10T05:52:08.846Z,94536.46
2017-12-10T05:54:37.921Z,94530.13
2017-12-10T05:57:06.970Z,94527.09
2017-12-10T05:59:36.026Z,94518.74
2017-12-10T06:02:05.093Z,94514.45
2017-12-10T06:04:34.122Z,94512.16
2017-12-10T06:07:03.172Z,94493.28
2017-12-10T06:09:32.218Z,94487.12
2017-12-10T06:12:01.281Z,94480.03
2017-12-10T06:14:32.312Z,94472.30
2017-12-10T06:17:03.253Z,94466.41
2017-12-10T06:19:37.538Z,94457.72
2017-12-10T06:22:09.545Z,94453.77
2017-12-10T06:27:13.815Z,94437.89
2017-12-10T06:29:42.862Z,94430.87
2017-12-10T06:32:11.917Z,94430.37
2017-12-10T06:34:41.176Z,94423.03
2017-12-10T06:37:10.226Z,94422.93
2017-12-10T06:39:39.269Z,94412.46
2017-12-10T06:42:08.374Z,94405.59
2017-12-10T06:44:38.400Z,94404.82
2017-12-10T06:47:07.447Z,94398.20
2017-12-10T06:49:36.525Z,94391.05
2017-12-10T06:52:05.537Z,94383.72
2017-12-10T06:54:34.611Z,94376.58
2017-12-10T06:57:03.677Z,94361.09
2017-12-10T06:59:32.711Z,94354.05
2017-12-10T07:02:01.802Z,94345.55
2017-12-10T07:04:36.527Z,94335.77
2017-12-10T07:07:05.882Z,94329.25
2017-12-10T07:09:39.725Z,94322.33
2017-12-10T07:12:08.806Z,94325.72
2017-12-10T07:14:48.454Z,94321.53
2017-12-10T07:17:17.534Z,94309.84
2017-12-10T07:19:46.612Z,94300.95
2017-12-10T07:22:15.667Z,94287.24
2017-12-10T07:24:50.306Z,94279.59
2017-12-10T07:27:19.344Z,94276.70
2017-12-10T07:29:50.435Z,94261.72
2017-12-10T07:32:19.494Z,94258.61
2017-12-10T07:34:48.544Z,94247.39
2017-12-10T07:37:17.623Z,94235.50
2017-12-10T07:39:56.346Z,94215.97
2017-12-10T07:42:26.374Z,94209.37
2017-12-10T07:45:03.101Z,94192.05
2017-12-10T07:50:10.358Z,94171.80
2017-12-10T07:55:17.485Z,94140.14
2017-12-10T07:58:00.246Z,94126.30
2017-12-10T08:00:29.290Z,94109.61
2017-12-10T08:02:58.345Z,94102.80
2017-12-10T08:05:45.830Z,94097.06
2017-12-10T08:08:14.872Z,94089.12
2017-12-10T08:10:54.754Z,94085.84
2017-12-10T08:13:24.732Z,94082.28
2017-12-10T08:16:02.562Z,94073.06
2017-12-10T08:18:39.515Z,94079.28
2017-12-10T08:21:08.598Z,94068.92
2017-12-10T08:23:37.681Z,94061.21
2017-12-10T08:26:06.740Z,94055.59
2017-12-10T08:28:46.597Z,94047.68
2017-12-10T08:31:15.676Z,94036.52
2017-12-10T08:33:55.315Z,94027.34
2017-12-10T08:36:39.088Z,94018.58
2017-12-10T08:39:08.163Z,94002.90
2017-12-10T08:41:41.111Z,93983.61
2017-12-10T08:44:10.620Z,93973.86
2017-12-10T08:46:43.966Z,93961.11
2017-12-10T08:49:13.031Z,93960.42
2017-12-10T08:51:50.581Z,93942.41
2017-12-10T08:54:19.654Z,93925.04
2017-12-10T08:56:50.603Z,93924.20
2017-12-10T08:59:19.654Z,93903.06
2017-12-10T09:01:48.723Z,93893.49
2017-12-10T09:04:17.750Z,93893.65
2017-12-10T09:06:46.787Z,93869.02
2017-12-10T09:09:16.729Z,93855.95
2017-12-10T09:11:47.717Z,93847.72
2017-12-10T09:14:16.771Z,93836.94
2017-12-10T09:16:53.475Z,93819.71
2017-12-10T09:19:22.586Z,93799.63
2017-12-10T09:21:59.803Z,93779.73
2017-12-10T09:24:28.866Z,93786.59
2017-12-10T09:26:58.804Z,93767.48
2017-12-10T09:29:27.866Z,93754.16
2017-12-10T09:31:58.836Z,93757.66
2017-12-10T09:37:03.726Z,93738.63
2017-12-10T09:39:36.250Z,93735.16
2017-12-10T09:42:05.339Z,93722.97
2017-12-10T09:44:37.658Z,93718.40
2017-12-10T09:47:06.691Z,93710.22
2017-12-10T09:49:35.730Z,93692.55
2017-12-10T09:52:04.766Z,93688.98
2017-12-10T09:54:34.705Z,93683.31
2017-12-10T09:57:03.746Z,93681.12
2017-12-10T09:59:33.746Z,93676.89
2017-12-10T10:02:02.790Z,93651.73
2017-12-10T10:07:07.155Z,93622.92
2017-12-10T10:09:57.873Z,93621.94
2017-12-10T10:12:27.921Z,93608.63
2017-12-10T10:17:56.119Z,93575.27
2017-12-10T10:20:25.171Z,93566.08
2017-12-10T10:22:58.881Z,93562.61
2017-12-10T10:25:29.820Z,93551.11
2017-12-10T10:27:59.661Z,93546.66
2017-12-10T10:30:56.982Z,93534.94
2017-12-10T10:33:26.097Z,93509.97
2017-12-10T10:35:55.273Z,93501.56
2017-12-10T10:38:24.389Z,93494.17
2017-12-10T10:40:58.959Z,93495.81
2017-12-10T10:43:28.029Z,93475.88
2017-12-10T10:45:59.030Z,93452.98
2017-12-10T10:48:45.324Z,93441.20
2017-12-10T10:51:14.395Z,93428.47
2017-12-10T10:53:49.332Z,93417.59
2017-12-10T10:56:18.401Z,93408.15
2017-12-10T10:58:53.269Z,93396.83
2017-12-10T11:01:53.775Z,93387.20
2017-12-10T11:04:26.242Z,93372.30
2017-12-10T11:06:56.074Z,93361.48
2017-12-10T11:09:25.223Z,93350.73
2017-12-10T11:11:54.439Z,93336.77
2017-12-10T11:14:29.352Z,93328.70
2017-12-10T11:17:01.285Z,93320.06
2017-12-10T11:19:34.530Z,93307.80
2017-12-10T11:22:12.593Z,93296.06
2017-12-10T11:24:42.674Z,93291.78
2017-12-10T11:27:12.029Z,93288.72
2017-12-10T11:32:18.575Z,93279.82
2017-12-10T11:34:47.679Z,93244.82
2017-12-10T11:37:16.907Z,93225.54
2017-12-10T11:39:58.214Z,93216.49
2017-12-10T11:42:27.259Z,93211.88
2017-12-10T11:44:56.289Z,93207.63
2017-12-10T11:47:25.341Z,93202.10
2017-12-10T11:50:02.043Z,93199.27
2017-12-10T11:52:32.069Z,93197.70
2017-12-10T11:55:02.054Z,93191.17
2017-12-10T11:57:35.270Z,93183.80
2017-12-10T12:02:55.338Z,93169.78
2017-12-10T12:05:26.183Z,93165.66
2017-12-10T12:10:32.536Z,93131.80
2017-12-10T12:13:01.676Z,93120.88
2017-12-10T12:18:07.828Z,93091.24
2017-12-10T12:20:38.080Z,93066.72
2017-12-10T12:23:07.102Z,93044.12
2017-12-10T12:26:03.002Z,93029.86
2017-12-10T12:28:32.993Z,93011.55
2017-12-10T12:31:02.149Z,93008.12
2017-12-10T12:33:32.092Z,92996.45
2017-12-10T12:36:01.137Z,92988.03
2017-12-10T12:41:07.354Z,92973.12
2017-12-10T12:43:36.494Z,92957.16
2017-12-10T12:46:05.569Z,92956.52
2017-12-10T12:48:34.649Z,92944.45
2017-12-10T12:51:04.504Z,92936.67
2017-12-10T12:56:10.498Z,92914.02
2017-12-10T12:58:39.528Z,92910.39
2017-12-10T13:01:14.075Z,92900.25
2017-12-10T13:06:18.947Z,92906.83
2017-12-10T13:08:49.001Z,92904.46
2017-12-10T13:11:18.133Z,92909.91
2017-12-10T13:16:30.557Z,92887.20
2017-12-10T13:21:37.898Z,92883.72
2017-12-10T13:24:07.599Z,92884.66
2017-12-10T13:26:50.026Z,92868.52
2017-12-10T13:29:20.009Z,92855.93
2017-12-10T13:31:50.540Z,92869.09
2017-12-10T13:34:21.202Z,92864.95
2017-12-10T13:36:57.638Z,92856.81
2017-12-10T13:42:05.663Z,92848.23
2017-12-10T13:44:34.800Z,92848.28
2017-12-10T13:47:04.012Z,92845.44
2017-12-10T13:49:35.147Z,92836.72
2017-12-10T13:52:04.207Z,92832.69
2017-12-10T13:54:33.326Z,92828.09
2017-12-10T13:57:02.352Z,92824.84
2017-12-10T13:59:31.384Z,92812.77
2017-12-10T14:02:00.462Z,92810.52
2017-12-10T14:04:30.487Z,92805.27
2017-12-10T14:06:59.635Z,92806.67
2017-12-10T14:09:28.688Z,92815.70
2017-12-10T14:11:57.805Z,92815.11
2017-12-10T14:14:28.980Z,92829.20
2017-12-10T14:16:58.290Z,92844.05
2017-12-10T14:19:27.478Z,92849.81
2017-12-10T14:21:56.868Z,92867.78
2017-12-10T14:24:25.914Z,92867.83
2017-12-10T14:26:54.964Z,92877.49
2017-12-10T14:32:00.442Z,92884.45
2017-12-10T14:34:30.426Z,92885.91
2017-12-10T14:37:00.370Z,92891.27
2017-12-10T14:39:29.457Z,92894.67
2017-12-10T14:44:35.660Z,92888.73
2017-12-10T14:49:41.148Z,92903.66
2017-12-10T14:52:10.300Z,92904.09
2017-12-10T14:54:39.346Z,92904.00
2017-12-10T14:57:08.400Z,92914.92
2017-12-10T14:59:37.459Z,92899.72
2017-12-10T15:02:09.977Z,92904.22
2017-12-10T15:04:39.076Z,92921.77
2017-12-10T15:09:43.325Z,92916.19
2017-12-10T15:12:25.974Z,92921.34
2017-12-10T15:14:55.015Z,92936.87
2017-12-10T15:17:25.977Z,92928.63
2017-12-10T15:20:28.404Z,92947.96
2017-12-10T15:25:33.939Z,92947.40
2017-12-10T15:28:08.396Z,92967.22
2017-12-10T15:30:37.499Z,92966.18
2017-12-10T15:33:19.091Z,92967.34
2017-12-10T15:35:51.760Z,92972.94
2017-12-10T15:38:29.470Z,92972.92
2017-12-10T15:41:00.632Z,92973.13
2017-12-10T15:43:29.681Z,92966.02
2017-12-10T15:46:03.100Z,92980.37
2017-12-10T15:48:33.425Z,92974.08
2017-12-10T15:51:04.627Z,92974.20
2017-12-10T15:56:21.075Z,92968.17
2017-12-10T15:58:50.103Z,92968.13
2017-12-10T16:01:29.232Z,92975.91
2017-12-10T16:03:58.742Z,92977.45
2017-12-10T16:09:12.099Z,93005.92
2017-12-10T16:11:43.181Z,93001.95
2017-12-10T16:16:50.992Z,92988.34
2017-12-10T16:19:22.266Z,92985.46
2017-12-10T16:21:51.378Z,92987.20
2017-12-10T16:26:58.517Z,92973.86
2017-12-10T16:35:10.039Z,92973.94
2017-12-10T16:37:39.110Z,92990.69
2017-12-10T16:45:50.201Z,93004.45
2017-12-10T16:48:27.039Z,93023.95
2017-12-10T16:50:56.081Z,93018.42
2017-12-10T16:53:40.028Z,92999.16
2017-12-10T16:56:35.283Z,93023.68
2017-12-10T16:59:04.716Z,93034.84
2017-12-10T17:01:34.518Z,93043.48
2017-12-10T17:06:39.706Z,93040.77
2017-12-10T17:11:43.957Z,92979.02
2017-12-10T17:16:48.552Z,92930.20
2017-12-10T17:21:53.770Z,92970.14
2017-12-10T17:24:30.651Z,93022.86
2017-12-10T17:26:59.840Z,92998.30
2017-12-10T17:29:40.399Z,93005.54
2017-12-10T17:32:13.174Z,93026.43
2017-12-10T17:34:42.586Z,93029.98
2017-12-10T17:37:19.799Z,93043.91
2017-12-10T17:39:48.869Z,93035.33
2017-12-10T17:42:25.518Z,93041.78
2017-12-10T17:44:54.695Z,93034.10
2017-12-10T17:47:40.953Z,93038.20
2017-12-10T17:50:10.895Z,93039.70
2017-12-10T17:55:43.637Z,93030.84
2017-12-10T18:00:48.190Z,93053.20
2017-12-10T18:05:56.187Z,93045.20
2017-12-10T18:08:25.212Z,93035.76
2017-12-10T18:13:41.880Z,93036.21
2017-12-10T18:16:10.932Z,93040.68
2017-12-10T18:18:39.954Z,93034.39
2017-12-10T18:21:09.070Z,93048.73
2017-12-10T18:23:38.126Z,93048.70
2017-12-10T18:26:07.258Z,93052.89
2017-12-10T18:31:12.329Z,93035.41
2017-12-10T18:33:42.314Z,93035.55
2017-12-10T18:36:11.544Z,93056.69
2017-12-10T18:38:40.779Z,93056.91
2017-12-10T18:41:09.877Z,93069.05
2017-12-10T18:43:39.380Z,93064.32
2017-12-10T18:46:08.740Z,93058.05
2017-12-10T18:51:14.759Z,93070.72
2017-12-10T18:53:48.606Z,93077.89
2017-12-10T18:56:19.455Z,93076.05
2017-12-10T18:58:56.975Z,93086.07
2017-12-10T19:01:28.026Z,93075.21
2017-12-10T19:06:34.336Z,93078.13
2017-12-10T19:09:03.972Z,93084.94
2017-12-10T19:11:35.382Z,93087.52
2017-12-10T19:14:06.345Z,93101.27
2017-12-10T19:16:36.374Z,93103.70
2017-12-10T19:19:06.493Z,93110.13
2017-12-10T19:24:06.535Z,93100.83
2017-12-10T19:26:35.627Z,93107.22
2017-12-10T19:29:05.886Z,93108.41
2017-12-10T19:31:35.143Z,93110.21
2017-12-10T19:34:04.848Z,93115.21
2017-12-10T19:39:09.537Z,93129.05
2017-12-10T19:41:39.524Z,93131.09
2017-12-10T19:44:09.456Z,93133.69
2017-12-10T19:46:39.290Z,93135.98
2017-12-10T19:49:08.628Z,93129.83
2017-12-10T19:51:45.305Z,93134.14
2017-12-10T19:54:14.368Z,93128.08
2017-12-10T19:56:44.634Z,93115.64
2017-12-10T19:59:14.167Z,93117.44
2017-12-10T20:01:46.375Z,93111.45
2017-12-10T20:04:15.932Z,93110.13
2017-12-10T20:09:20.297Z,93101.07
2017-12-10T20:11:49.613Z,93094.19
2017-12-10T20:14:18.717Z,93065.19
2017-12-10T20:16:49.844Z,93087.75
2017-12-10T20:19:18.929Z,93072.45
2017-12-10T20:21:47.965Z,93084.31
2017-12-10T20:24:17.005Z,93080.80
2017-12-10T20:26:50.064Z,93076.48
2017-12-10T20:29:19.094Z,93066.25
2017-12-10T20:34:25.581Z,93055.86
2017-12-10T20:39:30.191Z,93069.51
2017-12-10T20:42:01.122Z,93075.85
2017-12-10T20:44:56.719Z,93071.95
2017-12-10T20:47:25.753Z,93072.61
2017-12-10T20:49:54.814Z,93081.72
2017-12-10T20:54:59.126Z,93085.25
2017-12-10T20:57:30.349Z,93078.30
2017-12-10T21:00:00.292Z,93068.03
2017-12-10T21:02:37.289Z,93066.77
2017-12-10T21:05:08.578Z,93054.77
2017-12-10T21:07:39.732Z,93057.59
2017-12-10T21:10:08.795Z,93052.88
2017-12-10T21:15:13.958Z,93046.69
2017-12-10T21:17:45.788Z,93040.14
2017-12-10T21:20:15.094Z,93042.37
2017-12-10T21:22:44.068Z,93038.41
2017-12-10T21:25:13.108Z,93028.66
2017-12-10T21:27:42.149Z,93020.19
2017-12-10T21:30:12.094Z,93026.23
2017-12-10T21:32:43.094Z,93017.66
2017-12-10T21:35:12.158Z,93013.19
2017-12-10T21:37:41.285Z,93004.62
2017-12-10T21:40:10.363Z,93004.91
2017-12-10T21:45:16.226Z,92993.38
2017-12-10T21:47:46.291Z,92970.39
2017-12-10T21:50:15.482Z,92985.11
2017-12-10T21:52:44.516Z,92983.56
2017-12-10T21:55:13.594Z,92987.84
2017-12-10T21:57:42.646Z,92981.95
2017-12-10T22:00:11.679Z,92967.45
2017-12-10T22:02:40.722Z,92965.48
2017-12-10T22:05:09.747Z,92961.59
2017-12-10T22:07:38.807Z,92963.27
2017-12-10T22:10:07.851Z,92961.34
2017-12-10T22:12:36.885Z,92956.48
2017-12-10T22:15:05.923Z,92947.59
2017-12-10T22:17:35.014Z,92938.06
2017-12-10T22:20:04.050Z,92941.33
2017-12-10T22:22:33.097Z,92934.57
2017-12-10T22:25:02.158Z,92928.86
2017-12-10T22:27:31.185Z,92943.48
2017-12-10T22:30:03.469Z,92929.30
2017-12-10T22:32:32.509Z,92929.66
2017-12-10T22:35:01.574Z,92932.03
2017-12-10T22:37:30.586Z,92934.73
2017-12-10T22:40:01.746Z,92937.29
2017-12-10T22:42:30.778Z,92928.27
2017-12-10T22:45:05.729Z,92934.92
2017-12-10T22:47:34.775Z,92948.28
2017-12-10T22:50:05.036Z,92939.80
2017-12-10T22:52:34.216Z,92931.88
2017-12-10T22:57:39.499Z,92937.70
2017-12-10T23:00:08.591Z,92930.16
2017-12-10T23:02:37.679Z,92924.50
2017-12-10T23:07:41.998Z,92922.39
2017-12-10T23:10:11.074Z,92923.24
2017-12-10T23:12:44.899Z,92923.30
2017-12-10T23:15:17.493Z,92909.08
2017-12-10T23:17:46.533Z,92913.45
2017-12-10T23:20:26.932Z,92920.13
2017-12-10T23:25:31.006Z,92932.84
2017-12-10T23:30:35.317Z,92925.43
2017-12-10T23:33:04.345Z,92922.27
2017-12-10T23:35:33.391Z,92930.89
2017-12-10T23:38:03.345Z,92924.22
2017-12-10T23:40:32.369Z,92912.22
2017-12-10T23:43:01.580Z,92905.13
2017-12-10T23:45:30.649Z,92908.30
2017-12-10T23:48:05.703Z,92890.93
2017-12-10T23:50:34.718Z,92879.41
2017-12-10T23:53:11.300Z,92868.82
2017-12-10T23:55:40.327Z,92865.42
2017-12-10T23:58:09.354Z,92867.23
